Time;durP1;ratioP1;P1;durP2;ratioP2;P2;SDS_P1;SDS_P2;PMS_P1;PMS_P2;Temp;Humidity;BMP_temperature;BMP_pressure;BME280_temperature;BME280_humidity;BME280_pressure;Samples;Min_cycle;Max_cycle;Signal;HPM_P1;HPM_P2
2022/07/14 00:01:45;;;;;;;5.15;2.47;;;25.50;99.90;;;;;;6152673;23;20068;-70
2022/07/14 00:04:11;;;;;;;5.80;2.70;;;25.40;99.90;;;;;;6177393;23;20024;-70
2022/07/14 00:06:37;;;;;;;5.53;1.95;;;25.50;99.90;;;;;;6153326;23;20020;-71
2022/07/14 00:09:03;;;;;;;4.82;2.50;;;25.50;99.90;;;;;;6178490;23;20009;-69
2022/07/14 00:11:29;;;;;;;3.15;1.73;;;25.40;99.90;;;;;;6178946;23;20344;-71
2022/07/14 00:13:58;;;;;;;4.50;2.08;;;25.40;99.90;;;;;;6179500;23;20096;-72
2022/07/14 00:16:25;;;;;;;4.47;1.83;;;25.40;99.90;;;;;;6152529;23;20636;-71
2022/07/14 00:18:51;;;;;;;3.28;1.55;;;25.40;99.90;;;;;;6152726;23;20016;-71
2022/07/14 00:21:17;;;;;;;5.80;1.50;;;25.40;99.90;;;;;;6152052;23;20017;-72
2022/07/14 00:23:45;;;;;;;3.10;1.50;;;25.40;99.90;;;;;;6179667;23;20095;-70
2022/07/14 00:26:11;;;;;;;3.63;1.67;;;25.30;99.90;;;;;;6177494;23;20047;-71
2022/07/14 00:28:37;;;;;;;3.80;1.30;;;25.30;99.90;;;;;;6180078;23;20079;-71
2022/07/14 00:31:10;;;;;;;3.65;1.42;;;25.30;99.90;;;;;;6178100;23;20401;-70
2022/07/14 00:33:38;;;;;;;1.63;1.10;;;25.30;99.90;;;;;;6179312;23;20397;-72
2022/07/14 00:36:05;;;;;;;2.22;1.48;;;25.30;99.90;;;;;;6151159;23;20318;-71
2022/07/14 00:38:30;;;;;;;3.28;1.38;;;25.30;99.90;;;;;;6178863;23;20013;-70
2022/07/14 00:40:56;;;;;;;3.42;1.40;;;25.30;99.90;;;;;;6152994;23;20024;-70
2022/07/14 00:43:22;;;;;;;3.60;1.20;;;25.30;99.90;;;;;;6150884;23;20025;-71
2022/07/14 00:45:48;;;;;;;2.85;1.30;;;25.30;99.90;;;;;;6152145;23;20373;-70
2022/07/14 00:48:16;;;;;;;2.20;1.30;;;25.20;99.90;;;;;;6151244;23;20021;-71
2022/07/14 00:50:44;;;;;;;3.70;1.40;;;25.20;99.90;;;;;;6178888;23;20009;-71
2022/07/14 00:53:11;;;;;;;2.42;1.30;;;25.20;99.90;;;;;;6151594;23;20320;-71
2022/07/14 00:55:39;;;;;;;2.58;1.45;;;25.30;99.90;;;;;;6152722;23;20071;-70
2022/07/14 00:58:05;;;;;;;2.55;1.15;;;25.30;99.90;;;;;;6177496;23;20160;-70
2022/07/14 01:00:31;;;;;;;1.67;0.90;;;25.30;99.90;;;;;;6152598;23;20524;-69
2022/07/14 01:02:56;;;;;;;2.50;1.00;;;25.30;99.70;;;;;;6152267;23;20091;-70
2022/07/14 01:05:23;;;;;;;2.05;1.17;;;25.30;99.50;;;;;;6153479;23;21619;-70
2022/07/14 01:07:49;;;;;;;2.65;1.00;;;25.20;99.20;;;;;;6155106;23;20020;-70
2022/07/14 01:10:16;;;;;;;4.95;1.30;;;25.20;99.20;;;;;;6153633;23;20156;-71
2022/07/14 01:12:47;;;;;;;2.90;1.02;;;25.20;99.20;;;;;;6132768;23;20019;-70
2022/07/14 01:15:14;;;;;;;3.85;1.40;;;25.30;99.60;;;;;;6179746;23;20065;-70
2022/07/14 01:17:40;;;;;;;2.55;1.10;;;25.30;99.10;;;;;;6153727;23;20703;-71
2022/07/14 01:20:06;;;;;;;2.28;1.08;;;25.30;98.60;;;;;;6152861;23;20024;-70
2022/07/14 01:22:32;;;;;;;3.45;1.25;;;25.30;98.30;;;;;;6180175;23;20009;-70
2022/07/14 01:24:58;;;;;;;1.42;1.13;;;25.30;98.30;;;;;;6154244;23;20087;-70
2022/07/14 01:27:24;;;;;;;1.45;1.20;;;25.30;98.70;;;;;;6178443;23;20020;-70
2022/07/14 01:29:50;;;;;;;3.00;1.10;;;25.20;99.00;;;;;;6178667;23;20016;-72
2022/07/14 01:32:16;;;;;;;2.65;1.38;;;25.10;99.20;;;;;;6151941;23;20092;-70
2022/07/14 01:34:42;;;;;;;2.47;0.90;;;25.10;99.00;;;;;;6153770;23;20472;-70
2022/07/14 01:37:08;;;;;;;2.60;1.20;;;25.00;98.60;;;;;;6179221;23;20080;-70
2022/07/14 01:39:34;;;;;;;2.13;1.20;;;25.00;98.30;;;;;;6180232;23;20040;-69
2022/07/14 01:42:00;;;;;;;2.33;1.27;;;24.90;98.90;;;;;;6179771;23;20009;-70
2022/07/14 01:44:25;;;;;;;3.22;1.50;;;24.80;99.20;;;;;;6152218;23;20009;-69
2022/07/14 01:46:51;;;;;;;4.57;1.10;;;24.80;99.20;;;;;;6180231;23;20365;-70
2022/07/14 01:49:17;;;;;;;5.28;1.40;;;24.80;99.30;;;;;;6179425;23;20029;-70
2022/07/14 01:51:43;;;;;;;2.72;1.27;;;24.80;99.10;;;;;;6154785;23;20040;-70
2022/07/14 01:54:09;;;;;;;2.58;1.02;;;24.80;99.10;;;;;;6179072;23;20037;-70
2022/07/14 01:56:40;;;;;;;2.55;1.63;;;24.70;99.20;;;;;;6179746;23;20099;-70
2022/07/14 01:59:06;;;;;;;2.55;1.45;;;24.70;99.90;;;;;;6178960;23;20028;-71
2022/07/14 02:01:41;;;;;;;3.05;1.52;;;24.90;99.50;;;;;;6178983;23;20023;-70
2022/07/14 02:04:12;;;;;;;2.30;1.23;;;25.00;99.40;;;;;;6179171;23;20050;-70
2022/07/14 02:06:53;;;;;;;3.22;1.27;;;25.00;99.30;;;;;;6152106;23;20017;-70
2022/07/14 02:09:20;;;;;;;2.25;1.17;;;24.90;99.10;;;;;;6151422;23;20037;-70
2022/07/14 02:14:33;;;;;;;2.15;1.05;;;24.80;98.60;;;;;;6188944;23;20043;-70
2022/07/14 02:16:59;;;;;;;1.48;0.95;;;24.80;98.70;;;;;;6179350;23;20128;-70
2022/07/14 02:19:26;;;;;;;3.10;1.20;;;24.90;98.70;;;;;;6177967;23;20484;-68
2022/07/14 02:21:53;;;;;;;2.05;1.20;;;24.90;98.70;;;;;;6153338;23;20005;-69
2022/07/14 02:24:20;;;;;;;2.95;1.30;;;25.00;98.70;;;;;;6178157;23;20017;-69
2022/07/14 02:26:50;;;;;;;2.10;1.15;;;24.90;98.60;;;;;;6153418;23;20044;-70
2022/07/14 02:29:17;;;;;;;1.70;1.05;;;24.90;98.10;;;;;;6151677;23;20017;-70
2022/07/14 02:31:44;;;;;;;2.78;1.10;;;24.80;97.80;;;;;;6179187;23;20440;-70
2022/07/14 02:34:11;;;;;;;2.95;1.20;;;24.70;98.10;;;;;;6151631;23;20066;-70
2022/07/14 02:36:38;;;;;;;2.58;1.20;;;24.70;98.20;;;;;;6131334;23;20326;-71
2022/07/14 02:39:04;;;;;;;5.22;1.05;;;24.60;98.20;;;;;;6177512;23;20078;-70
2022/07/14 02:41:30;;;;;;;1.60;1.00;;;24.60;98.20;;;;;;6153383;23;20024;-70
2022/07/14 02:43:56;;;;;;;4.25;1.10;;;24.60;98.40;;;;;;6179063;23;20025;-70
2022/07/14 02:46:22;;;;;;;2.97;1.52;;;24.50;98.20;;;;;;6178673;23;21465;-69
2022/07/14 02:48:49;;;;;;;1.17;1.00;;;24.50;98.50;;;;;;6153312;23;20015;-70
2022/07/14 02:51:16;;;;;;;2.85;1.30;;;24.50;98.50;;;;;;6151650;23;20021;-70
2022/07/14 02:53:42;;;;;;;2.35;1.27;;;24.50;98.60;;;;;;6179635;23;20087;-70
2022/07/14 02:56:08;;;;;;;2.55;1.27;;;24.50;98.60;;;;;;6150976;23;20071;-70
2022/07/14 02:58:35;;;;;;;2.90;1.10;;;24.50;98.80;;;;;;6178358;23;20048;-71
2022/07/14 03:01:07;;;;;;;3.50;1.35;;;24.50;99.00;;;;;;6179179;23;20017;-70
2022/07/14 03:03:34;;;;;;;7.05;1.40;;;24.50;99.20;;;;;;6179204;23;20024;-69
2022/07/14 03:06:13;;;;;;;2.95;1.30;;;24.50;99.30;;;;;;6179088;23;20064;-70
2022/07/14 03:08:39;;;;;;;4.35;1.42;;;24.50;99.20;;;;;;6151975;23;20623;-70
2022/07/14 03:11:06;;;;;;;2.22;0.98;;;24.40;99.50;;;;;;6151678;23;20016;-70
2022/07/14 03:13:32;;;;;;;3.17;0.95;;;24.40;99.90;;;;;;6152374;23;20508;-70
2022/07/14 03:15:59;;;;;;;3.63;1.17;;;24.30;99.90;;;;;;6179086;23;20045;-70
2022/07/14 03:18:25;;;;;;;3.78;1.35;;;24.30;99.90;;;;;;6151199;23;20095;-71
2022/07/14 03:20:55;;;;;;;5.10;1.52;;;24.30;99.90;;;;;;6179538;23;20017;-70
2022/07/14 03:23:21;;;;;;;4.50;1.48;;;24.30;99.90;;;;;;6151238;23;20063;-70
2022/07/14 03:25:48;;;;;;;2.50;1.33;;;24.30;99.90;;;;;;6151923;23;20329;-70
2022/07/14 03:28:14;;;;;;;6.07;1.75;;;24.30;99.90;;;;;;6177356;23;20075;-70
2022/07/14 03:30:41;;;;;;;2.33;1.65;;;24.30;99.90;;;;;;6178134;23;20441;-70
2022/07/14 03:33:07;;;;;;;3.10;1.30;;;24.30;99.90;;;;;;6151613;23;20017;-69
2022/07/14 03:35:36;;;;;;;5.35;1.40;;;24.40;99.90;;;;;;6151725;23;20023;-69
2022/07/14 03:38:02;;;;;;;2.92;1.48;;;24.40;99.90;;;;;;6174961;23;20013;-69
2022/07/14 03:40:28;;;;;;;3.00;1.42;;;24.50;99.90;;;;;;6116964;23;20483;-70
2022/07/14 03:42:54;;;;;;;4.75;1.70;;;24.50;99.90;;;;;;6162815;23;20428;-70
2022/07/14 03:45:20;;;;;;;2.40;1.50;;;24.40;99.90;;;;;;6127356;23;20091;-69
2022/07/14 03:47:45;;;;;;;2.22;1.10;;;24.50;99.90;;;;;;6178195;23;20032;-71
2022/07/14 03:50:11;;;;;;;2.75;1.67;;;24.40;99.90;;;;;;6177451;23;20067;-71
2022/07/14 03:52:37;;;;;;;3.70;1.48;;;24.40;99.90;;;;;;6152342;23;20147;-70
2022/07/14 03:55:03;;;;;;;5.05;1.75;;;24.40;99.90;;;;;;6151055;23;20607;-70
2022/07/14 03:57:29;;;;;;;3.03;1.42;;;24.40;99.90;;;;;;6178379;23;20016;-69
2022/07/14 03:59:55;;;;;;;4.53;1.48;;;24.40;99.90;;;;;;6151794;23;20520;-70
2022/07/14 04:02:21;;;;;;;4.47;1.30;;;24.30;99.90;;;;;;6177700;23;20111;-71
2022/07/14 04:04:46;;;;;;;1.80;0.98;;;24.40;99.90;;;;;;6178900;23;20025;-70
2022/07/14 04:07:12;;;;;;;2.88;1.42;;;24.40;99.90;;;;;;6150926;23;20037;-70
2022/07/14 04:09:38;;;;;;;2.92;1.10;;;24.30;99.90;;;;;;6178540;23;20009;-71
2022/07/14 04:12:04;;;;;;;4.50;1.90;;;24.30;99.90;;;;;;6168697;23;20020;-71
2022/07/14 04:14:30;;;;;;;2.85;1.50;;;24.40;99.90;;;;;;6146191;23;20678;-70
2022/07/14 04:16:56;;;;;;;2.40;1.35;;;24.30;99.90;;;;;;6178246;23;20099;-70
2022/07/14 04:19:22;;;;;;;3.63;1.63;;;24.30;99.90;;;;;;6177323;23;20087;-70
2022/07/14 04:21:47;;;;;;;5.47;1.55;;;24.30;99.90;;;;;;6152456;23;20013;-69
2022/07/14 04:24:13;;;;;;;5.28;1.05;;;24.30;99.90;;;;;;6151268;23;20013;-69
2022/07/14 04:26:40;;;;;;;2.70;1.20;;;24.30;99.90;;;;;;6178661;23;20040;-71
2022/07/14 04:29:06;;;;;;;2.53;1.30;;;24.30;99.90;;;;;;6177408;23;20467;-70
2022/07/14 04:31:33;;;;;;;5.10;1.50;;;24.30;99.90;;;;;;6178823;23;20071;-70
2022/07/14 04:33:59;;;;;;;2.00;1.10;;;24.30;99.90;;;;;;6151824;23;20021;-70
2022/07/14 04:36:25;;;;;;;2.17;1.20;;;24.30;99.90;;;;;;6177396;23;20044;-70
2022/07/14 04:38:51;;;;;;;7.88;1.90;;;24.30;99.90;;;;;;6151936;23;20740;-69
2022/07/14 04:41:16;;;;;;;2.08;1.35;;;24.30;99.90;;;;;;6151272;23;20104;-70
2022/07/14 04:43:42;;;;;;;2.83;1.50;;;24.30;99.90;;;;;;6163116;23;20009;-71
2022/07/14 04:46:09;;;;;;;4.85;1.50;;;24.30;99.90;;;;;;6150271;23;20045;-71
2022/07/14 04:52:01;;;;;;;3.95;1.95;;;24.30;99.90;;;;;;6178773;23;20013;-71
2022/07/14 04:54:05;;;;;;;6.03;2.17;;;24.30;99.90;;;;;;6177049;23;20083;-71
2022/07/14 04:56:31;;;;;;;2.67;1.35;;;24.30;99.90;;;;;;6178836;23;20021;-70
2022/07/14 04:58:57;;;;;;;3.45;1.50;;;24.40;99.90;;;;;;6179086;23;20027;-70
2022/07/14 05:01:24;;;;;;;2.80;1.63;;;24.40;99.90;;;;;;6151162;23;20025;-71
2022/07/14 05:03:50;;;;;;;6.68;1.48;;;24.50;99.90;;;;;;6178358;23;20006;-69
2022/07/14 05:06:18;;;;;;;5.15;1.60;;;24.50;99.90;;;;;;6155732;23;20025;-71
2022/07/14 05:08:44;;;;;;;4.07;1.60;;;24.50;99.90;;;;;;6178264;23;20013;-71
2022/07/14 05:11:10;;;;;;;5.28;1.80;;;24.60;99.90;;;;;;6177168;23;20023;-70
2022/07/14 05:13:36;;;;;;;7.28;2.85;;;24.70;99.90;;;;;;6155420;23;20013;-70
2022/07/14 05:16:02;;;;;;;8.80;3.35;;;24.70;99.90;;;;;;6151495;23;20021;-70
2022/07/14 05:18:28;;;;;;;3.45;1.90;;;24.70;99.90;;;;;;6151975;23;20009;-71
2022/07/14 05:20:53;;;;;;;10.40;1.88;;;24.80;99.90;;;;;;6152715;23;20090;-70
2022/07/14 05:23:19;;;;;;;7.60;2.08;;;24.80;99.90;;;;;;6127201;23;20050;-70
2022/07/14 05:25:45;;;;;;;7.97;2.00;;;24.90;99.90;;;;;;6178358;23;20480;-70
2022/07/14 05:28:11;;;;;;;6.93;1.75;;;25.00;99.90;;;;;;6178549;23;20353;-70
2022/07/14 05:30:37;;;;;;;4.32;2.08;;;25.00;99.90;;;;;;6151640;23;20013;-70
2022/07/14 05:33:03;;;;;;;3.13;1.90;;;25.10;99.90;;;;;;6150808;23;20024;-70
2022/07/14 05:35:28;;;;;;;5.88;1.98;;;25.20;99.90;;;;;;6190390;23;20024;-70
2022/07/14 05:37:54;;;;;;;7.25;1.92;;;25.30;99.70;;;;;;6151064;23;20017;-70
2022/07/14 05:40:20;;;;;;;3.92;1.95;;;25.40;99.80;;;;;;6177337;23;20535;-69
2022/07/14 05:42:46;;;;;;;4.63;2.15;;;25.40;99.80;;;;;;6177465;23;20024;-70
2022/07/14 05:45:11;;;;;;;6.38;2.03;;;25.50;99.90;;;;;;6151021;23;20013;-70
2022/07/14 05:47:38;;;;;;;6.78;2.30;;;25.60;99.90;;;;;;6152355;23;20013;-71
2022/07/14 05:50:04;;;;;;;6.35;2.20;;;25.60;99.90;;;;;;6153894;23;20033;-70
2022/07/14 05:52:30;;;;;;;5.75;2.22;;;25.70;99.90;;;;;;6155065;23;20048;-70
2022/07/14 05:54:59;;;;;;;10.07;2.30;;;25.80;99.90;;;;;;6154244;23;20025;-71
2022/07/14 05:57:25;;;;;;;8.18;2.15;;;25.90;99.90;;;;;;6153469;23;20017;-72
2022/07/14 05:59:51;;;;;;;5.72;2.50;;;25.90;99.90;;;;;;6151695;23;20089;-72
2022/07/14 06:02:17;;;;;;;16.63;3.88;;;26.00;99.80;;;;;;6177277;23;20036;-71
2022/07/14 06:04:42;;;;;;;6.03;2.20;;;26.10;99.50;;;;;;6153005;23;20016;-71
2022/07/14 06:07:09;;;;;;;4.13;1.50;;;26.10;99.70;;;;;;6179123;23;20013;-71
2022/07/14 06:09:36;;;;;;;2.58;1.60;;;26.10;99.40;;;;;;6153928;23;20013;-70
2022/07/14 06:12:05;;;;;;;6.50;1.83;;;26.20;99.30;;;;;;6180965;23;20056;-69
2022/07/14 06:14:31;;;;;;;4.85;1.63;;;26.30;99.10;;;;;;6178813;23;20032;-70
2022/07/14 06:16:57;;;;;;;8.50;1.98;;;26.30;99.00;;;;;;6178997;23;20021;-70
2022/07/14 06:19:23;;;;;;;5.47;1.73;;;26.40;98.90;;;;;;6137754;23;20023;-71
2022/07/14 06:21:49;;;;;;;9.07;1.83;;;26.50;99.00;;;;;;6155910;23;20013;-70
2022/07/14 06:24:15;;;;;;;8.10;1.75;;;26.60;99.10;;;;;;6152233;23;20021;-70
2022/07/14 06:26:41;;;;;;;3.70;1.60;;;26.60;99.20;;;;;;6179755;23;20009;-70
2022/07/14 06:29:10;;;;;;;5.28;1.38;;;26.60;99.20;;;;;;6178976;23;20017;-70
2022/07/14 06:31:36;;;;;;;5.22;1.50;;;26.70;99.20;;;;;;6153400;23;20009;-71
2022/07/14 06:34:03;;;;;;;4.88;1.85;;;26.70;99.40;;;;;;6151042;23;20087;-70
2022/07/14 06:36:29;;;;;;;8.25;1.88;;;26.80;99.30;;;;;;6153125;23;20101;-70
2022/07/14 06:38:56;;;;;;;3.47;1.48;;;26.80;99.20;;;;;;6178937;23;20021;-69
2022/07/14 06:41:22;;;;;;;7.00;1.58;;;26.90;99.10;;;;;;6151083;23;20333;-69
2022/07/14 06:43:48;;;;;;;4.32;1.52;;;26.90;98.90;;;;;;6176091;23;20023;-70
2022/07/14 06:46:17;;;;;;;5.72;1.67;;;27.00;98.90;;;;;;6164337;23;20456;-71
2022/07/14 06:48:44;;;;;;;6.18;1.75;;;27.00;98.80;;;;;;6153318;23;20616;-70
2022/07/14 06:51:10;;;;;;;4.07;1.70;;;27.20;98.70;;;;;;6179496;23;20021;-70
2022/07/14 06:53:35;;;;;;;6.95;1.67;;;27.20;98.40;;;;;;6179890;23;20067;-70
2022/07/14 06:56:01;;;;;;;9.40;1.38;;;27.30;98.30;;;;;;6153225;23;20048;-70
2022/07/14 06:58:27;;;;;;;6.45;1.92;;;27.40;97.80;;;;;;6178195;23;20016;-70
2022/07/14 07:00:53;;;;;;;3.83;1.42;;;27.40;98.00;;;;;;6152016;23;20028;-70
2022/07/14 07:03:19;;;;;;;3.65;1.40;;;27.30;97.60;;;;;;6156951;23;20013;-71
2022/07/14 07:08:28;;;;;;;4.97;1.58;;;27.50;97.50;;;;;;6130437;23;20028;-70
2022/07/14 07:10:58;;;;;;;13.80;1.65;;;27.60;97.10;;;;;;6170031;23;20013;-70
2022/07/14 07:13:26;;;;;;;4.72;1.33;;;27.60;96.80;;;;;;6142343;23;20084;-70
2022/07/14 07:15:52;;;;;;;3.10;1.60;;;27.60;96.80;;;;;;6144121;23;20024;-71
2022/07/14 07:18:18;;;;;;;5.28;1.80;;;27.60;96.80;;;;;;6168304;23;20410;-69
2022/07/14 07:20:44;;;;;;;3.55;1.30;;;27.70;96.90;;;;;;6171602;23;20016;-70
2022/07/14 07:23:11;;;;;;;8.13;2.10;;;27.70;96.90;;;;;;6126276;23;20017;-70
2022/07/14 07:25:37;;;;;;;7.30;1.80;;;27.80;97.20;;;;;;6178998;23;20017;-71
2022/07/14 07:28:03;;;;;;;6.88;1.65;;;27.90;96.90;;;;;;6151402;23;20017;-70
2022/07/14 07:30:29;;;;;;;8.10;1.60;;;27.90;97.00;;;;;;6179117;23;20027;-70
2022/07/14 07:32:56;;;;;;;5.55;1.50;;;28.00;96.90;;;;;;6178939;23;20021;-71
2022/07/14 07:35:22;;;;;;;5.25;1.52;;;28.00;96.60;;;;;;6177763;23;20035;-71
2022/07/14 07:37:49;;;;;;;5.65;1.65;;;28.10;96.60;;;;;;6152980;23;20008;-70
2022/07/14 07:40:15;;;;;;;5.45;1.75;;;28.10;96.60;;;;;;6177230;23;20013;-70
2022/07/14 07:42:41;;;;;;;4.85;1.70;;;28.10;96.60;;;;;;6152477;23;20013;-70
2022/07/14 07:45:07;;;;;;;4.75;1.63;;;28.10;96.50;;;;;;6151023;23;20032;-70
2022/07/14 07:47:34;;;;;;;9.77;1.55;;;28.20;96.60;;;;;;6178684;23;20373;-71
2022/07/14 07:49:59;;;;;;;8.63;1.80;;;28.30;96.40;;;;;;6152059;23;20488;-70
2022/07/14 07:52:25;;;;;;;5.93;1.70;;;28.40;96.30;;;;;;6151724;23;20028;-71
2022/07/14 07:54:51;;;;;;;6.28;1.60;;;28.50;96.30;;;;;;6179213;23;20015;-73
2022/07/14 07:57:17;;;;;;;4.15;1.50;;;28.60;96.10;;;;;;6176771;23;20032;-71
2022/07/14 07:59:43;;;;;;;5.63;1.42;;;28.60;95.90;;;;;;6178379;23;20009;-70
2022/07/14 08:02:08;;;;;;;8.27;1.60;;;28.50;95.90;;;;;;6177428;23;20028;-71
2022/07/14 08:04:34;;;;;;;7.72;1.73;;;28.60;96.20;;;;;;6178637;23;20028;-70
2022/07/14 08:07:00;;;;;;;8.10;1.88;;;28.70;96.10;;;;;;6178876;23;20013;-69
2022/07/14 08:09:26;;;;;;;7.40;2.20;;;28.70;96.20;;;;;;6150617;23;20017;-69
2022/07/14 08:11:52;;;;;;;7.00;1.83;;;28.80;96.20;;;;;;6127867;23;20008;-71
2022/07/14 08:17:02;;;;;;;6.03;1.75;;;28.80;95.50;;;;;;6178656;23;20032;-70
2022/07/14 08:19:28;;;;;;;5.00;1.27;;;28.80;95.50;;;;;;6150875;23;20461;-69
2022/07/14 08:21:54;;;;;;;7.90;2.17;;;28.90;95.80;;;;;;6163723;23;20163;-69
2022/07/14 08:24:23;;;;;;;5.40;1.50;;;28.90;95.50;;;;;;6123404;23;20511;-71
2022/07/14 08:26:50;;;;;;;7.20;1.73;;;28.90;95.50;;;;;;6151535;23;20045;-70
2022/07/14 08:29:16;;;;;;;4.57;1.60;;;29.10;95.60;;;;;;6141894;23;20398;-70
2022/07/14 08:31:42;;;;;;;6.20;1.30;;;29.20;95.10;;;;;;6168308;23;20005;-70
2022/07/14 08:34:08;;;;;;;7.20;1.88;;;29.10;95.00;;;;;;6140650;23;20435;-70
2022/07/14 08:36:34;;;;;;;9.25;2.15;;;29.10;95.00;;;;;;6169141;23;20060;-71
2022/07/14 08:39:01;;;;;;;3.42;1.88;;;29.00;95.30;;;;;;6140941;23;20021;-70
2022/07/14 08:41:28;;;;;;;3.03;1.60;;;29.00;95.30;;;;;;6168585;23;20013;-71
2022/07/14 08:43:55;;;;;;;4.35;1.60;;;29.10;95.30;;;;;;6166727;23;20024;-71
2022/07/14 08:46:22;;;;;;;6.90;1.58;;;29.20;94.70;;;;;;6138549;23;20017;-71
2022/07/14 08:48:48;;;;;;;7.72;2.10;;;29.40;94.50;;;;;;6142537;23;20020;-70
2022/07/14 08:51:14;;;;;;;8.93;1.85;;;29.50;95.10;;;;;;6175321;23;20453;-72
2022/07/14 08:53:43;;;;;;;5.15;1.77;;;29.50;95.20;;;;;;6127119;23;20087;-71
2022/07/14 08:56:09;;;;;;;10.40;2.47;;;29.70;95.10;;;;;;6176137;23;20021;-72
2022/07/14 08:58:35;;;;;;;7.68;2.40;;;29.90;95.70;;;;;;6151436;23;20063;-71
2022/07/14 09:01:01;;;;;;;7.70;1.98;;;29.80;96.70;;;;;;6151090;23;20025;-70
2022/07/14 09:03:26;;;;;;;3.70;1.73;;;29.90;95.40;;;;;;6149109;23;20013;-71
2022/07/14 09:05:53;;;;;;;10.20;2.10;;;29.90;95.20;;;;;;6177628;23;20401;-71
2022/07/14 09:08:18;;;;;;;8.93;2.40;;;29.80;96.30;;;;;;6151381;23;20111;-71
2022/07/14 09:10:46;;;;;;;8.55;2.25;;;30.00;96.40;;;;;;6151792;23;20100;-70
2022/07/14 09:13:18;;;;;;;10.18;2.55;;;30.10;96.70;;;;;;6177622;23;20017;-71
2022/07/14 09:15:45;;;;;;;11.35;2.30;;;30.20;97.30;;;;;;6155827;23;20025;-71
2022/07/14 09:18:22;;;;;;;9.40;2.30;;;30.20;97.40;;;;;;6160069;23;20556;-70
2022/07/14 09:20:49;;;;;;;6.75;2.03;;;30.10;97.60;;;;;;6152343;23;20464;-71
2022/07/14 09:23:33;;;;;;;5.38;1.70;;;29.90;98.50;;;;;;6150973;23;20031;-72
2022/07/14 09:26:44;;;;;;;8.50;1.98;;;29.80;98.90;;;;;;6095115;23;20017;-72
2022/07/14 09:29:19;;;;;;;8.98;1.77;;;29.80;98.70;;;;;;6033716;23;20278;-70
2022/07/14 09:31:45;;;;;;;8.00;1.67;;;29.90;98.60;;;;;;6172036;23;20016;-72
2022/07/14 09:34:32;;;;;;;6.63;1.50;;;30.00;98.20;;;;;;6179819;23;20432;-73
2022/07/14 09:37:15;;;;;;;5.47;1.60;;;29.40;98.40;;;;;;6181055;23;20017;-71
2022/07/14 09:39:52;;;;;;;4.70;1.27;;;29.90;98.10;;;;;;6180601;23;20016;-71
2022/07/14 09:42:17;;;;;;;4.75;1.52;;;30.10;97.20;;;;;;6179977;23;20120;-70
2022/07/14 09:44:43;;;;;;;9.40;1.92;;;30.00;97.30;;;;;;6181418;23;20037;-70
2022/07/14 09:47:09;;;;;;;7.70;1.70;;;30.20;97.20;;;;;;6180378;23;20017;-71
2022/07/14 09:49:37;;;;;;;4.10;1.60;;;30.20;97.50;;;;;;6180181;23;20692;-71
2022/07/14 09:52:05;;;;;;;4.85;1.58;;;29.90;97.60;;;;;;6179961;23;20452;-71
2022/07/14 09:54:44;;;;;;;8.60;1.77;;;30.20;97.40;;;;;;6130414;23;20089;-71
2022/07/14 09:57:12;;;;;;;3.45;1.33;;;30.20;97.10;;;;;;6164963;23;20108;-70
2022/07/14 09:59:52;;;;;;;4.75;1.40;;;30.40;97.10;;;;;;6154562;23;20009;-70
2022/07/14 10:02:18;;;;;;;4.22;1.30;;;30.70;96.60;;;;;;6152877;23;20035;-70
2022/07/14 10:04:45;;;;;;;6.65;1.63;;;30.70;96.90;;;;;;6154058;23;20037;-71
2022/07/14 10:07:12;;;;;;;7.03;1.92;;;30.70;97.40;;;;;;6177444;23;20009;-70
2022/07/14 10:09:57;;;;;;;10.65;2.17;;;30.60;97.90;;;;;;6180375;23;20017;-71
2022/07/14 10:12:25;;;;;;;5.50;1.88;;;30.70;98.10;;;;;;6179200;23;20020;-71
2022/07/14 10:14:52;;;;;;;7.22;1.60;;;30.60;98.60;;;;;;6153562;23;20032;-70
2022/07/14 10:17:19;;;;;;;7.38;1.67;;;30.70;98.80;;;;;;6116229;23;20060;-70
2022/07/14 10:19:47;;;;;;;7.38;1.80;;;30.80;98.70;;;;;;6152813;23;20117;-70
2022/07/14 10:22:14;;;;;;;8.45;1.73;;;30.80;98.90;;;;;;6152844;23;20017;-70
2022/07/14 10:24:40;;;;;;;7.78;1.90;;;30.80;98.60;;;;;;6117818;23;20013;-71
2022/07/14 10:27:08;;;;;;;6.32;1.80;;;31.00;98.40;;;;;;6151468;23;20021;-70
2022/07/14 10:29:34;;;;;;;4.82;1.45;;;31.50;97.70;;;;;;6180528;23;20012;-70
2022/07/14 10:32:26;;;;;;;7.13;1.95;;;31.80;97.20;;;;;;6180054;23;20345;-70
2022/07/14 10:35:30;;;;;;;7.30;1.70;;;31.70;96.60;;;;;;6163380;23;20019;-71
2022/07/14 10:38:22;;;;;;;6.55;1.48;;;31.90;96.60;;;;;;6161394;23;20025;-69
2022/07/14 10:40:57;;;;;;;9.68;1.92;;;31.80;95.90;;;;;;6152469;23;20433;-71
2022/07/14 10:43:24;;;;;;;3.35;1.40;;;31.90;95.60;;;;;;6177886;23;20059;-71
2022/07/14 10:45:55;;;;;;;7.63;1.92;;;31.70;95.10;;;;;;6179450;23;20020;-71
2022/07/14 10:48:35;;;;;;;7.83;1.90;;;31.50;95.20;;;;;;6177716;23;20408;-70
2022/07/14 10:51:26;;;;;;;4.50;1.67;;;31.30;95.50;;;;;;6153795;23;20009;-70
2022/07/14 10:54:14;;;;;;;5.25;1.50;;;31.50;95.10;;;;;;6159157;23;20015;-71
2022/07/14 10:56:43;;;;;;;6.60;1.40;;;31.70;94.70;;;;;;6178569;23;20017;-71
2022/07/14 10:59:27;;;;;;;3.47;1.50;;;31.60;94.30;;;;;;6162617;23;20115;-71
2022/07/14 11:02:11;;;;;;;7.57;1.58;;;31.90;94.10;;;;;;6153206;23;20021;-70
2022/07/14 11:05:12;;;;;;;4.03;1.60;;;31.90;94.00;;;;;;6152433;23;20017;-70
2022/07/14 11:07:50;;;;;;;3.70;1.30;;;32.10;93.80;;;;;;6162816;23;20016;-70
2022/07/14 11:10:19;;;;;;;6.18;1.45;;;32.00;93.60;;;;;;6151612;23;20580;-70
2022/07/14 11:13:06;;;;;;;4.93;1.48;;;32.30;92.70;;;;;;6179626;23;20318;-71
2022/07/14 11:15:42;;;;;;;4.35;1.20;;;32.40;92.40;;;;;;6190513;23;20016;-71
2022/07/14 11:18:24;;;;;;;6.60;1.40;;;32.30;93.20;;;;;;6177954;23;20024;-71
2022/07/14 11:20:51;;;;;;;4.95;1.52;;;32.40;92.90;;;;;;6153056;23;20009;-71
2022/07/14 11:23:22;;;;;;;3.22;1.27;;;32.80;92.60;;;;;;6179190;23;20045;-71
2022/07/14 11:25:52;;;;;;;4.10;1.83;;;33.20;92.30;;;;;;6152869;23;20017;-71
2022/07/14 11:28:51;;;;;;;6.65;2.25;;;33.60;92.10;;;;;;6152242;23;20153;-71
2022/07/14 11:31:22;;;;;;;8.77;2.40;;;33.70;91.50;;;;;;6157506;23;20024;-70
2022/07/14 11:36:59;;;;;;;4.22;1.60;;;33.40;93.30;;;;;;6188308;23;20027;-71
2022/07/14 11:39:34;;;;;;;3.58;1.58;;;33.80;93.60;;;;;;6175816;23;20020;-71
2022/07/14 11:42:07;;;;;;;8.20;2.03;;;34.10;93.50;;;;;;6143431;23;20432;-70
2022/07/14 11:44:35;;;;;;;2.13;1.50;;;33.90;93.60;;;;;;6177654;23;20615;-71
2022/07/14 11:47:04;;;;;;;6.80;2.10;;;34.00;92.70;;;;;;6177721;23;20068;-71
2022/07/14 11:49:31;;;;;;;3.83;1.60;;;33.80;93.80;;;;;;6178795;23;20017;-71
2022/07/14 11:51:58;;;;;;;5.60;1.85;;;33.60;92.80;;;;;;6179020;23;20027;-71
2022/07/14 11:54:25;;;;;;;4.30;1.65;;;34.00;92.60;;;;;;6142849;23;20016;-71
2022/07/14 11:57:06;;;;;;;5.93;2.00;;;34.40;92.50;;;;;;6174386;23;20017;-73
2022/07/14 11:59:40;;;;;;;3.70;1.30;;;33.90;93.10;;;;;;6173718;23;20175;-72
2022/07/14 12:02:09;;;;;;;3.95;1.67;;;34.20;92.60;;;;;;6169010;23;20477;-72
2022/07/14 12:04:46;;;;;;;4.28;1.73;;;34.40;94.50;;;;;;6171255;23;20120;-70
2022/07/14 12:07:12;;;;;;;5.63;2.05;;;34.80;95.10;;;;;;6174995;23;20017;-71
2022/07/14 12:09:38;;;;;;;5.47;1.90;;;34.80;93.70;;;;;;6174132;23;20088;-71
2022/07/14 12:12:06;;;;;;;2.65;1.90;;;34.70;92.40;;;;;;6118698;23;20021;-70
2022/07/14 12:14:32;;;;;;;3.50;1.80;;;34.70;93.20;;;;;;6169334;23;20013;-71
2022/07/14 12:16:59;;;;;;;2.55;1.52;;;34.50;94.10;;;;;;6175462;23;20487;-71
2022/07/14 12:19:30;;;;;;;5.20;1.85;;;34.40;94.70;;;;;;6160739;23;20020;-72
2022/07/14 12:22:00;;;;;;;4.83;2.20;;;34.20;94.40;;;;;;6171748;23;20065;-71
2022/07/14 12:24:28;;;;;;;4.65;1.70;;;34.60;93.60;;;;;;6161172;23;20012;-73
2022/07/14 12:27:11;;;;;;;4.65;2.40;;;35.10;93.20;;;;;;6180454;22;20071;-70
2022/07/14 12:29:47;;;;;;;5.60;2.33;;;34.90;94.00;;;;;;6131497;23;20013;-70
2022/07/14 12:32:15;;;;;;;4.40;2.00;;;35.00;96.30;;;;;;6171550;23;20036;-72
2022/07/14 12:34:42;;;;;;;6.18;2.30;;;34.00;97.90;;;;;;6171493;23;20012;-72
2022/07/14 12:37:09;;;;;;;4.13;2.20;;;34.40;97.90;;;;;;6145639;23;20048;-72
2022/07/14 12:39:38;;;;;;;5.30;2.45;;;34.50;97.70;;;;;;6170314;23;20063;-71
2022/07/14 12:42:04;;;;;;;5.55;2.08;;;34.70;97.60;;;;;;6167794;23;20017;-69
2022/07/14 12:44:31;;;;;;;4.38;2.13;;;34.70;98.30;;;;;;6173831;23;20021;-70
2022/07/14 12:47:11;;;;;;;5.45;1.88;;;34.10;99.20;;;;;;6175807;23;20017;-72
2022/07/14 12:49:45;;;;;;;5.85;1.95;;;34.20;99.40;;;;;;6171963;23;20370;-71
2022/07/14 12:52:12;;;;;;;9.05;2.10;;;33.60;97.10;;;;;;6168820;23;20021;-71
2022/07/14 12:54:40;;;;;;;4.97;1.50;;;33.50;96.90;;;;;;6172057;23;20104;-71
2022/07/14 12:57:17;;;;;;;5.60;1.95;;;33.50;96.10;;;;;;6122792;23;20020;-70
2022/07/14 12:59:44;;;;;;;6.07;2.72;;;33.80;96.00;;;;;;6190173;23;20396;-69
2022/07/14 13:02:10;;;;;;;4.70;1.55;;;34.20;96.10;;;;;;6169118;23;20021;-70
2022/07/14 13:04:37;;;;;;;3.95;1.50;;;33.90;96.20;;;;;;6177457;23;20020;-71
2022/07/14 13:07:14;;;;;;;4.15;1.42;;;33.90;95.90;;;;;;6168811;23;20021;-69